sensor_id;sensor_type;location;lat;lon;timestamp;P1;durP1;ratioP1;P2;durP2;ratioP2
6280;SDS011;3173;48.204;11.612;2023-06-04T00:02:24;5.73;;;3.60;;
6280;SDS011;3173;48.204;11.612;2023-06-04T00:04:50;5.00;;;3.20;;
6280;SDS011;3173;48.204;11.612;2023-06-04T00:07:17;7.13;;;4.00;;
6280;SDS011;3173;48.204;11.612;2023-06-04T00:09:43;9.47;;;4.10;;
6280;SDS011;3173;48.204;11.612;2023-06-04T00:12:12;6.97;;;4.30;;
6280;SDS011;3173;48.204;11.612;2023-06-04T00:14:38;6.80;;;3.33;;
6280;SDS011;3173;48.204;11.612;2023-06-04T00:17:04;5.80;;;3.63;;
6280;SDS011;3173;48.204;11.612;2023-06-04T00:19:30;9.77;;;3.93;;
6280;SDS011;3173;48.204;11.612;2023-06-04T00:21:58;5.90;;;3.13;;
6280;SDS011;3173;48.204;11.612;2023-06-04T00:24:25;7.83;;;3.70;;
6280;SDS011;3173;48.204;11.612;2023-06-04T00:26:51;9.53;;;4.63;;
6280;SDS011;3173;48.204;11.612;2023-06-04T00:29:17;6.60;;;3.63;;
6280;SDS011;3173;48.204;11.612;2023-06-04T00:31:43;7.43;;;3.73;;
6280;SDS011;3173;48.204;11.612;2023-06-04T00:34:10;10.90;;;3.43;;
6280;SDS011;3173;48.204;11.612;2023-06-04T00:36:36;5.83;;;3.37;;
6280;SDS011;3173;48.204;11.612;2023-06-04T00:39:02;6.07;;;3.93;;
6280;SDS011;3173;48.204;11.612;2023-06-04T00:41:28;7.00;;;3.43;;
6280;SDS011;3173;48.204;11.612;2023-06-04T00:43:54;8.73;;;4.40;;
6280;SDS011;3173;48.204;11.612;2023-06-04T00:46:27;7.47;;;3.80;;
6280;SDS011;3173;48.204;11.612;2023-06-04T00:48:53;5.30;;;3.00;;
6280;SDS011;3173;48.204;11.612;2023-06-04T00:51:20;6.40;;;3.70;;
6280;SDS011;3173;48.204;11.612;2023-06-04T00:53:47;6.60;;;3.70;;
6280;SDS011;3173;48.204;11.612;2023-06-04T00:56:14;8.27;;;2.80;;
6280;SDS011;3173;48.204;11.612;2023-06-04T00:58:40;6.77;;;3.77;;
6280;SDS011;3173;48.204;11.612;2023-06-04T01:01:10;8.00;;;3.40;;
6280;SDS011;3173;48.204;11.612;2023-06-04T01:03:38;6.50;;;3.10;;
6280;SDS011;3173;48.204;11.612;2023-06-04T01:08:34;6.73;;;4.23;;
6280;SDS011;3173;48.204;11.612;2023-06-04T01:11:01;7.97;;;3.13;;
6280;SDS011;3173;48.204;11.612;2023-06-04T01:13:27;5.70;;;3.10;;
6280;SDS011;3173;48.204;11.612;2023-06-04T01:15:53;9.57;;;3.53;;
6280;SDS011;3173;48.204;11.612;2023-06-04T01:18:23;10.93;;;3.40;;
6280;SDS011;3173;48.204;11.612;2023-06-04T01:20:57;6.07;;;3.70;;
6280;SDS011;3173;48.204;11.612;2023-06-04T01:23:25;7.00;;;3.63;;
6280;SDS011;3173;48.204;11.612;2023-06-04T01:25:58;8.40;;;3.00;;
6280;SDS011;3173;48.204;11.612;2023-06-04T01:28:28;4.60;;;3.07;;
6280;SDS011;3173;48.204;11.612;2023-06-04T01:30:54;5.57;;;3.70;;
6280;SDS011;3173;48.204;11.612;2023-06-04T01:33:21;5.73;;;4.20;;
6280;SDS011;3173;48.204;11.612;2023-06-04T01:35:48;4.13;;;2.83;;
6280;SDS011;3173;48.204;11.612;2023-06-04T01:38:15;7.43;;;3.87;;
6280;SDS011;3173;48.204;11.612;2023-06-04T01:40:41;7.53;;;3.57;;
6280;SDS011;3173;48.204;11.612;2023-06-04T01:43:07;5.63;;;3.37;;
6280;SDS011;3173;48.204;11.612;2023-06-04T01:45:33;7.00;;;3.47;;
6280;SDS011;3173;48.204;11.612;2023-06-04T01:48:03;7.57;;;3.60;;
6280;SDS011;3173;48.204;11.612;2023-06-04T01:50:29;6.40;;;3.70;;
6280;SDS011;3173;48.204;11.612;2023-06-04T01:52:56;6.53;;;3.53;;
6280;SDS011;3173;48.204;11.612;2023-06-04T01:55:22;6.40;;;3.70;;
6280;SDS011;3173;48.204;11.612;2023-06-04T01:57:50;11.13;;;4.30;;
6280;SDS011;3173;48.204;11.612;2023-06-04T02:00:17;5.50;;;3.60;;
6280;SDS011;3173;48.204;11.612;2023-06-04T02:02:44;6.43;;;3.80;;
6280;SDS011;3173;48.204;11.612;2023-06-04T02:05:13;5.13;;;4.37;;
6280;SDS011;3173;48.204;11.612;2023-06-04T02:07:40;4.93;;;3.70;;
6280;SDS011;3173;48.204;11.612;2023-06-04T02:10:07;7.83;;;4.10;;
6280;SDS011;3173;48.204;11.612;2023-06-04T02:12:35;7.13;;;4.20;;
6280;SDS011;3173;48.204;11.612;2023-06-04T02:15:02;5.90;;;4.07;;
6280;SDS011;3173;48.204;11.612;2023-06-04T02:17:28;6.87;;;4.47;;
6280;SDS011;3173;48.204;11.612;2023-06-04T02:19:57;7.87;;;3.77;;
6280;SDS011;3173;48.204;11.612;2023-06-04T02:22:24;8.43;;;4.10;;
6280;SDS011;3173;48.204;11.612;2023-06-04T02:24:50;9.63;;;4.23;;
6280;SDS011;3173;48.204;11.612;2023-06-04T02:27:16;7.63;;;5.10;;
6280;SDS011;3173;48.204;11.612;2023-06-04T02:29:43;7.60;;;4.57;;
6280;SDS011;3173;48.204;11.612;2023-06-04T02:32:09;10.60;;;4.80;;
6280;SDS011;3173;48.204;11.612;2023-06-04T02:34:35;7.40;;;4.90;;
6280;SDS011;3173;48.204;11.612;2023-06-04T02:37:02;7.23;;;4.70;;
6280;SDS011;3173;48.204;11.612;2023-06-04T02:39:29;8.80;;;4.50;;
6280;SDS011;3173;48.204;11.612;2023-06-04T02:41:55;8.37;;;5.00;;
6280;SDS011;3173;48.204;11.612;2023-06-04T02:44:22;7.70;;;4.77;;
6280;SDS011;3173;48.204;11.612;2023-06-04T02:46:48;7.93;;;4.93;;
6280;SDS011;3173;48.204;11.612;2023-06-04T02:49:14;8.40;;;5.50;;
6280;SDS011;3173;48.204;11.612;2023-06-04T02:51:41;8.70;;;4.67;;
6280;SDS011;3173;48.204;11.612;2023-06-04T02:54:07;8.03;;;4.90;;
6280;SDS011;3173;48.204;11.612;2023-06-04T02:56:34;11.50;;;4.97;;
6280;SDS011;3173;48.204;11.612;2023-06-04T02:59:00;11.27;;;4.93;;
6280;SDS011;3173;48.204;11.612;2023-06-04T03:01:26;9.37;;;5.23;;
6280;SDS011;3173;48.204;11.612;2023-06-04T03:03:53;8.10;;;4.90;;
6280;SDS011;3173;48.204;11.612;2023-06-04T03:06:19;9.10;;;4.93;;
6280;SDS011;3173;48.204;11.612;2023-06-04T03:08:49;10.03;;;5.23;;
6280;SDS011;3173;48.204;11.612;2023-06-04T03:11:16;14.03;;;5.37;;
6280;SDS011;3173;48.204;11.612;2023-06-04T03:13:45;8.00;;;4.70;;
6280;SDS011;3173;48.204;11.612;2023-06-04T03:16:11;7.43;;;4.73;;
6280;SDS011;3173;48.204;11.612;2023-06-04T03:18:42;11.27;;;5.30;;
6280;SDS011;3173;48.204;11.612;2023-06-04T03:21:09;9.23;;;4.73;;
6280;SDS011;3173;48.204;11.612;2023-06-04T03:23:38;9.60;;;4.63;;
6280;SDS011;3173;48.204;11.612;2023-06-04T03:26:05;8.40;;;4.40;;
6280;SDS011;3173;48.204;11.612;2023-06-04T03:28:32;7.57;;;4.90;;
6280;SDS011;3173;48.204;11.612;2023-06-04T03:30:59;9.30;;;4.70;;
6280;SDS011;3173;48.204;11.612;2023-06-04T03:33:25;8.33;;;5.10;;
6280;SDS011;3173;48.204;11.612;2023-06-04T03:35:51;14.10;;;4.70;;
6280;SDS011;3173;48.204;11.612;2023-06-04T03:38:18;10.20;;;3.97;;
6280;SDS011;3173;48.204;11.612;2023-06-04T03:40:45;6.20;;;3.90;;
6280;SDS011;3173;48.204;11.612;2023-06-04T03:43:11;8.23;;;4.70;;
6280;SDS011;3173;48.204;11.612;2023-06-04T03:45:37;7.23;;;4.40;;
6280;SDS011;3173;48.204;11.612;2023-06-04T03:48:03;7.00;;;4.13;;
6280;SDS011;3173;48.204;11.612;2023-06-04T03:50:30;6.50;;;4.07;;
6280;SDS011;3173;48.204;11.612;2023-06-04T03:52:56;6.20;;;3.90;;
6280;SDS011;3173;48.204;11.612;2023-06-04T03:55:22;6.90;;;4.03;;
6280;SDS011;3173;48.204;11.612;2023-06-04T03:57:49;6.30;;;3.87;;
6280;SDS011;3173;48.204;11.612;2023-06-04T04:00:15;5.67;;;3.63;;
6280;SDS011;3173;48.204;11.612;2023-06-04T04:02:42;8.83;;;4.20;;
6280;SDS011;3173;48.204;11.612;2023-06-04T04:05:08;8.63;;;4.00;;
6280;SDS011;3173;48.204;11.612;2023-06-04T04:07:36;5.80;;;3.70;;
6280;SDS011;3173;48.204;11.612;2023-06-04T04:10:02;7.67;;;3.77;;
6280;SDS011;3173;48.204;11.612;2023-06-04T04:12:29;9.37;;;3.90;;
6280;SDS011;3173;48.204;11.612;2023-06-04T04:14:56;6.37;;;4.00;;
6280;SDS011;3173;48.204;11.612;2023-06-04T04:17:22;8.13;;;3.70;;
6280;SDS011;3173;48.204;11.612;2023-06-04T04:19:48;6.93;;;3.97;;
6280;SDS011;3173;48.204;11.612;2023-06-04T04:22:14;5.90;;;4.60;;
6280;SDS011;3173;48.204;11.612;2023-06-04T04:24:42;7.07;;;3.87;;
6280;SDS011;3173;48.204;11.612;2023-06-04T04:27:09;8.20;;;4.40;;
6280;SDS011;3173;48.204;11.612;2023-06-04T04:29:38;6.47;;;3.43;;
6280;SDS011;3173;48.204;11.612;2023-06-04T04:32:07;6.43;;;3.83;;
6280;SDS011;3173;48.204;11.612;2023-06-04T04:34:37;6.83;;;4.33;;
6280;SDS011;3173;48.204;11.612;2023-06-04T04:37:08;5.80;;;3.63;;
6280;SDS011;3173;48.204;11.612;2023-06-04T04:39:35;6.50;;;3.43;;
6280;SDS011;3173;48.204;11.612;2023-06-04T04:42:02;5.20;;;3.83;;
6280;SDS011;3173;48.204;11.612;2023-06-04T04:44:28;7.30;;;3.50;;
6280;SDS011;3173;48.204;11.612;2023-06-04T04:46:54;7.20;;;4.00;;
6280;SDS011;3173;48.204;11.612;2023-06-04T04:49:20;6.57;;;3.40;;
6280;SDS011;3173;48.204;11.612;2023-06-04T04:51:47;5.20;;;3.40;;
6280;SDS011;3173;48.204;11.612;2023-06-04T04:54:13;9.20;;;3.90;;
6280;SDS011;3173;48.204;11.612;2023-06-04T04:56:39;17.20;;;3.73;;
6280;SDS011;3173;48.204;11.612;2023-06-04T04:59:05;4.70;;;3.37;;
6280;SDS011;3173;48.204;11.612;2023-06-04T05:01:31;8.53;;;3.90;;
6280;SDS011;3173;48.204;11.612;2023-06-04T05:03:57;4.30;;;3.00;;
6280;SDS011;3173;48.204;11.612;2023-06-04T05:06:23;6.87;;;3.47;;
6280;SDS011;3173;48.204;11.612;2023-06-04T05:08:49;5.17;;;3.20;;
6280;SDS011;3173;48.204;11.612;2023-06-04T05:11:15;8.47;;;4.40;;
6280;SDS011;3173;48.204;11.612;2023-06-04T05:13:42;7.50;;;3.50;;
6280;SDS011;3173;48.204;11.612;2023-06-04T05:16:08;6.23;;;3.00;;
6280;SDS011;3173;48.204;11.612;2023-06-04T05:18:39;8.30;;;3.67;;
6280;SDS011;3173;48.204;11.612;2023-06-04T05:21:06;5.20;;;3.60;;
6280;SDS011;3173;48.204;11.612;2023-06-04T05:23:33;4.93;;;3.00;;
6280;SDS011;3173;48.204;11.612;2023-06-04T05:25:59;5.50;;;3.33;;
6280;SDS011;3173;48.204;11.612;2023-06-04T05:28:32;9.60;;;4.13;;
6280;SDS011;3173;48.204;11.612;2023-06-04T05:30:58;6.27;;;3.23;;
6280;SDS011;3173;48.204;11.612;2023-06-04T05:33:28;6.13;;;3.20;;
6280;SDS011;3173;48.204;11.612;2023-06-04T05:35:55;5.83;;;3.37;;
6280;SDS011;3173;48.204;11.612;2023-06-04T05:38:26;4.40;;;2.83;;
6280;SDS011;3173;48.204;11.612;2023-06-04T05:40:55;4.93;;;2.90;;
6280;SDS011;3173;48.204;11.612;2023-06-04T05:43:21;11.80;;;3.10;;
6280;SDS011;3173;48.204;11.612;2023-06-04T05:45:48;6.50;;;3.57;;
6280;SDS011;3173;48.204;11.612;2023-06-04T05:48:14;5.77;;;3.23;;
6280;SDS011;3173;48.204;11.612;2023-06-04T05:50:40;6.10;;;3.43;;
6280;SDS011;3173;48.204;11.612;2023-06-04T05:53:07;7.20;;;3.40;;
6280;SDS011;3173;48.204;11.612;2023-06-04T05:55:33;6.20;;;3.00;;
6280;SDS011;3173;48.204;11.612;2023-06-04T05:57:59;4.53;;;3.07;;
6280;SDS011;3173;48.204;11.612;2023-06-04T06:00:25;8.43;;;3.30;;
6280;SDS011;3173;48.204;11.612;2023-06-04T06:02:52;5.60;;;3.40;;
6280;SDS011;3173;48.204;11.612;2023-06-04T06:05:18;5.40;;;3.17;;
6280;SDS011;3173;48.204;11.612;2023-06-04T06:07:45;13.50;;;3.60;;
6280;SDS011;3173;48.204;11.612;2023-06-04T06:10:11;6.90;;;3.33;;
6280;SDS011;3173;48.204;11.612;2023-06-04T06:12:38;7.40;;;3.83;;
6280;SDS011;3173;48.204;11.612;2023-06-04T06:15:05;7.57;;;3.30;;
6280;SDS011;3173;48.204;11.612;2023-06-04T06:17:31;7.63;;;3.60;;
6280;SDS011;3173;48.204;11.612;2023-06-04T06:19:58;6.40;;;3.70;;
6280;SDS011;3173;48.204;11.612;2023-06-04T06:22:24;5.70;;;3.57;;
6280;SDS011;3173;48.204;11.612;2023-06-04T06:24:50;6.73;;;3.50;;
6280;SDS011;3173;48.204;11.612;2023-06-04T06:27:17;13.03;;;3.73;;
6280;SDS011;3173;48.204;11.612;2023-06-04T06:29:43;7.90;;;3.43;;
6280;SDS011;3173;48.204;11.612;2023-06-04T06:32:09;4.50;;;3.03;;
6280;SDS011;3173;48.204;11.612;2023-06-04T06:34:36;5.47;;;2.77;;
6280;SDS011;3173;48.204;11.612;2023-06-04T06:37:05;9.00;;;3.53;;
6280;SDS011;3173;48.204;11.612;2023-06-04T06:39:32;6.60;;;3.43;;
6280;SDS011;3173;48.204;11.612;2023-06-04T06:41:58;6.03;;;2.93;;
6280;SDS011;3173;48.204;11.612;2023-06-04T06:44:24;5.50;;;3.00;;
6280;SDS011;3173;48.204;11.612;2023-06-04T06:46:50;4.83;;;3.27;;
6280;SDS011;3173;48.204;11.612;2023-06-04T06:49:17;6.37;;;3.27;;
6280;SDS011;3173;48.204;11.612;2023-06-04T06:51:43;17.73;;;4.20;;
6280;SDS011;3173;48.204;11.612;2023-06-04T06:54:09;8.90;;;3.13;;
6280;SDS011;3173;48.204;11.612;2023-06-04T06:56:35;8.57;;;3.00;;
6280;SDS011;3173;48.204;11.612;2023-06-04T06:59:01;14.50;;;2.90;;
6280;SDS011;3173;48.204;11.612;2023-06-04T07:01:28;7.40;;;3.23;;
6280;SDS011;3173;48.204;11.612;2023-06-04T07:03:54;6.30;;;2.90;;
6280;SDS011;3173;48.204;11.612;2023-06-04T07:06:20;9.00;;;3.33;;
6280;SDS011;3173;48.204;11.612;2023-06-04T07:08:46;9.13;;;3.23;;
6280;SDS011;3173;48.204;11.612;2023-06-04T07:11:13;5.30;;;2.80;;
6280;SDS011;3173;48.204;11.612;2023-06-04T07:13:41;6.00;;;3.50;;
6280;SDS011;3173;48.204;11.612;2023-06-04T07:16:08;10.30;;;3.50;;
6280;SDS011;3173;48.204;11.612;2023-06-04T07:18:34;4.93;;;2.60;;
6280;SDS011;3173;48.204;11.612;2023-06-04T07:21:00;5.83;;;2.90;;
6280;SDS011;3173;48.204;11.612;2023-06-04T07:23:26;6.80;;;2.87;;
6280;SDS011;3173;48.204;11.612;2023-06-04T07:25:52;8.00;;;3.03;;
6280;SDS011;3173;48.204;11.612;2023-06-04T07:28:18;7.03;;;3.50;;
6280;SDS011;3173;48.204;11.612;2023-06-04T07:30:45;4.67;;;2.93;;
6280;SDS011;3173;48.204;11.612;2023-06-04T07:33:11;6.70;;;2.37;;
6280;SDS011;3173;48.204;11.612;2023-06-04T07:35:37;5.60;;;2.60;;
6280;SDS011;3173;48.204;11.612;2023-06-04T07:38:03;5.20;;;3.00;;
6280;SDS011;3173;48.204;11.612;2023-06-04T07:40:30;11.80;;;3.10;;
6280;SDS011;3173;48.204;11.612;2023-06-04T07:42:56;5.70;;;2.80;;
6280;SDS011;3173;48.204;11.612;2023-06-04T07:45:22;9.43;;;3.50;;
6280;SDS011;3173;48.204;11.612;2023-06-04T07:47:48;5.53;;;3.10;;
6280;SDS011;3173;48.204;11.612;2023-06-04T07:50:15;8.53;;;3.00;;
6280;SDS011;3173;48.204;11.612;2023-06-04T07:52:41;5.30;;;2.97;;
6280;SDS011;3173;48.204;11.612;2023-06-04T07:55:08;4.83;;;2.80;;
6280;SDS011;3173;48.204;11.612;2023-06-04T07:57:34;5.40;;;2.90;;
6280;SDS011;3173;48.204;11.612;2023-06-04T08:00:01;4.00;;;2.73;;
6280;SDS011;3173;48.204;11.612;2023-06-04T08:02:29;7.27;;;3.77;;
6280;SDS011;3173;48.204;11.612;2023-06-04T08:04:55;14.60;;;2.90;;
6280;SDS011;3173;48.204;11.612;2023-06-04T08:07:21;8.27;;;2.73;;
6280;SDS011;3173;48.204;11.612;2023-06-04T08:09:48;5.77;;;2.70;;
6280;SDS011;3173;48.204;11.612;2023-06-04T08:12:15;5.97;;;3.20;;
6280;SDS011;3173;48.204;11.612;2023-06-04T08:14:41;11.23;;;2.60;;
6280;SDS011;3173;48.204;11.612;2023-06-04T08:17:07;6.63;;;3.20;;
6280;SDS011;3173;48.204;11.612;2023-06-04T08:19:33;4.00;;;2.63;;
6280;SDS011;3173;48.204;11.612;2023-06-04T08:21:59;6.27;;;2.70;;
6280;SDS011;3173;48.204;11.612;2023-06-04T08:24:25;6.60;;;2.63;;
6280;SDS011;3173;48.204;11.612;2023-06-04T08:26:51;4.87;;;2.70;;
6280;SDS011;3173;48.204;11.612;2023-06-04T08:29:17;7.03;;;2.70;;
6280;SDS011;3173;48.204;11.612;2023-06-04T08:31:43;4.70;;;2.57;;
6280;SDS011;3173;48.204;11.612;2023-06-04T08:34:09;4.50;;;2.77;;
6280;SDS011;3173;48.204;11.612;2023-06-04T08:36:35;7.70;;;3.00;;
6280;SDS011;3173;48.204;11.612;2023-06-04T08:39:01;6.40;;;3.20;;
6280;SDS011;3173;48.204;11.612;2023-06-04T08:41:34;4.93;;;2.73;;
6280;SDS011;3173;48.204;11.612;2023-06-04T08:44:04;7.97;;;3.07;;
6280;SDS011;3173;48.204;11.612;2023-06-04T08:46:35;6.00;;;2.73;;
6280;SDS011;3173;48.204;11.612;2023-06-04T08:49:04;4.17;;;2.50;;
6280;SDS011;3173;48.204;11.612;2023-06-04T08:51:32;13.20;;;3.20;;
6280;SDS011;3173;48.204;11.612;2023-06-04T08:53:58;4.57;;;2.37;;
6280;SDS011;3173;48.204;11.612;2023-06-04T08:56:25;3.93;;;2.20;;
6280;SDS011;3173;48.204;11.612;2023-06-04T08:58:55;3.80;;;2.50;;
6280;SDS011;3173;48.204;11.612;2023-06-04T09:01:22;5.33;;;2.03;;
6280;SDS011;3173;48.204;11.612;2023-06-04T09:03:48;5.63;;;2.40;;
6280;SDS011;3173;48.204;11.612;2023-06-04T09:06:14;5.67;;;2.60;;
6280;SDS011;3173;48.204;11.612;2023-06-04T09:08:41;4.60;;;2.50;;
6280;SDS011;3173;48.204;11.612;2023-06-04T09:11:10;6.13;;;2.87;;
6280;SDS011;3173;48.204;11.612;2023-06-04T09:13:36;6.30;;;2.57;;
6280;SDS011;3173;48.204;11.612;2023-06-04T09:16:04;7.33;;;2.60;;
6280;SDS011;3173;48.204;11.612;2023-06-04T09:18:31;6.17;;;2.60;;
6280;SDS011;3173;48.204;11.612;2023-06-04T09:21:00;5.27;;;2.17;;
6280;SDS011;3173;48.204;11.612;2023-06-04T09:23:27;6.00;;;2.10;;
6280;SDS011;3173;48.204;11.612;2023-06-04T09:25:53;4.37;;;2.50;;
6280;SDS011;3173;48.204;11.612;2023-06-04T09:28:19;3.70;;;2.13;;
6280;SDS011;3173;48.204;11.612;2023-06-04T09:30:52;7.73;;;2.40;;
6280;SDS011;3173;48.204;11.612;2023-06-04T09:33:18;10.83;;;2.60;;
6280;SDS011;3173;48.204;11.612;2023-06-04T09:35:53;4.13;;;2.20;;
6280;SDS011;3173;48.204;11.612;2023-06-04T09:38:20;4.40;;;2.27;;
6280;SDS011;3173;48.204;11.612;2023-06-04T09:40:47;4.00;;;2.27;;
6280;SDS011;3173;48.204;11.612;2023-06-04T09:43:21;7.57;;;2.27;;
6280;SDS011;3173;48.204;11.612;2023-06-04T09:45:47;7.03;;;2.43;;
6280;SDS011;3173;48.204;11.612;2023-06-04T09:48:19;9.50;;;2.67;;
6280;SDS011;3173;48.204;11.612;2023-06-04T09:50:46;5.70;;;2.80;;
6280;SDS011;3173;48.204;11.612;2023-06-04T09:53:15;3.47;;;2.20;;
6280;SDS011;3173;48.204;11.612;2023-06-04T09:55:42;4.40;;;2.20;;
6280;SDS011;3173;48.204;11.612;2023-06-04T09:58:08;3.27;;;1.90;;
6280;SDS011;3173;48.204;11.612;2023-06-04T10:00:37;3.00;;;2.10;;
6280;SDS011;3173;48.204;11.612;2023-06-04T10:03:03;5.37;;;2.20;;
6280;SDS011;3173;48.204;11.612;2023-06-04T10:05:34;8.43;;;2.33;;
6280;SDS011;3173;48.204;11.612;2023-06-04T10:08:02;5.47;;;2.37;;
6280;SDS011;3173;48.204;11.612;2023-06-04T10:10:33;5.10;;;2.03;;
6280;SDS011;3173;48.204;11.612;2023-06-04T10:13:01;3.00;;;2.10;;
6280;SDS011;3173;48.204;11.612;2023-06-04T10:15:29;3.03;;;2.03;;
6280;SDS011;3173;48.204;11.612;2023-06-04T10:17:57;8.20;;;2.70;;
6280;SDS011;3173;48.204;11.612;2023-06-04T10:20:23;6.10;;;2.10;;
6280;SDS011;3173;48.204;11.612;2023-06-04T10:22:50;4.00;;;2.37;;
6280;SDS011;3173;48.204;11.612;2023-06-04T10:25:16;7.40;;;2.70;;
6280;SDS011;3173;48.204;11.612;2023-06-04T10:27:42;4.90;;;2.37;;
6280;SDS011;3173;48.204;11.612;2023-06-04T10:30:09;8.50;;;2.47;;
6280;SDS011;3173;48.204;11.612;2023-06-04T10:32:35;5.20;;;2.63;;
6280;SDS011;3173;48.204;11.612;2023-06-04T10:35:05;4.53;;;2.27;;
6280;SDS011;3173;48.204;11.612;2023-06-04T10:37:34;8.30;;;2.37;;
6280;SDS011;3173;48.204;11.612;2023-06-04T10:40:00;6.77;;;2.37;;
6280;SDS011;3173;48.204;11.612;2023-06-04T10:42:37;7.97;;;2.33;;
6280;SDS011;3173;48.204;11.612;2023-06-04T10:45:03;3.73;;;2.13;;
6280;SDS011;3173;48.204;11.612;2023-06-04T10:47:29;4.10;;;2.07;;
6280;SDS011;3173;48.204;11.612;2023-06-04T10:50:06;3.30;;;1.97;;
6280;SDS011;3173;48.204;11.612;2023-06-04T10:52:32;4.63;;;2.50;;
6280;SDS011;3173;48.204;11.612;2023-06-04T10:55:05;7.27;;;2.50;;
6280;SDS011;3173;48.204;11.612;2023-06-04T10:57:32;5.73;;;2.30;;
6280;SDS011;3173;48.204;11.612;2023-06-04T10:59:59;3.40;;;1.93;;
6280;SDS011;3173;48.204;11.612;2023-06-04T11:02:25;8.03;;;2.57;;
6280;SDS011;3173;48.204;11.612;2023-06-04T11:04:58;5.27;;;2.40;;
6280;SDS011;3173;48.204;11.612;2023-06-04T11:07:26;5.30;;;1.90;;
6280;SDS011;3173;48.204;11.612;2023-06-04T11:09:53;5.90;;;2.97;;
6280;SDS011;3173;48.204;11.612;2023-06-04T11:12:19;9.77;;;2.43;;
6280;SDS011;3173;48.204;11.612;2023-06-04T11:14:58;4.43;;;2.57;;
6280;SDS011;3173;48.204;11.612;2023-06-04T11:17:24;3.20;;;1.97;;
6280;SDS011;3173;48.204;11.612;2023-06-04T11:19:50;5.07;;;2.37;;
6280;SDS011;3173;48.204;11.612;2023-06-04T11:22:20;5.23;;;2.50;;
6280;SDS011;3173;48.204;11.612;2023-06-04T11:24:47;4.33;;;2.63;;
6280;SDS011;3173;48.204;11.612;2023-06-04T11:27:13;3.70;;;2.60;;
6280;SDS011;3173;48.204;11.612;2023-06-04T11:29:39;6.27;;;3.20;;
6280;SDS011;3173;48.204;11.612;2023-06-04T11:32:05;7.30;;;2.87;;
6280;SDS011;3173;48.204;11.612;2023-06-04T11:34:32;5.93;;;3.27;;
6280;SDS011;3173;48.204;11.612;2023-06-04T11:37:07;5.20;;;2.80;;
6280;SDS011;3173;48.204;11.612;2023-06-04T11:39:35;4.97;;;2.60;;
6280;SDS011;3173;48.204;11.612;2023-06-04T11:42:06;5.53;;;2.57;;
6280;SDS011;3173;48.204;11.612;2023-06-04T11:44:33;4.63;;;2.73;;
6280;SDS011;3173;48.204;11.612;2023-06-04T11:46:59;6.47;;;3.10;;
6280;SDS011;3173;48.204;11.612;2023-06-04T11:49:25;7.47;;;3.20;;
6280;SDS011;3173;48.204;11.612;2023-06-04T11:51:53;7.50;;;3.13;;
6280;SDS011;3173;48.204;11.612;2023-06-04T11:54:20;8.13;;;3.07;;
6280;SDS011;3173;48.204;11.612;2023-06-04T11:56:48;5.77;;;3.03;;
6280;SDS011;3173;48.204;11.612;2023-06-04T11:59:15;5.00;;;2.97;;
6280;SDS011;3173;48.204;11.612;2023-06-04T12:01:44;4.17;;;2.90;;
6280;SDS011;3173;48.204;11.612;2023-06-04T12:04:14;8.37;;;3.03;;
6280;SDS011;3173;48.204;11.612;2023-06-04T12:06:54;6.20;;;2.50;;
6280;SDS011;3173;48.204;11.612;2023-06-04T12:09:25;5.27;;;2.97;;
6280;SDS011;3173;48.204;11.612;2023-06-04T12:12:02;9.40;;;2.40;;
6280;SDS011;3173;48.204;11.612;2023-06-04T12:14:29;5.83;;;2.90;;
6280;SDS011;3173;48.204;11.612;2023-06-04T12:19:24;6.70;;;2.60;;
6280;SDS011;3173;48.204;11.612;2023-06-04T12:24:27;5.10;;;2.50;;
6280;SDS011;3173;48.204;11.612;2023-06-04T12:27:00;7.10;;;2.80;;
6280;SDS011;3173;48.204;11.612;2023-06-04T12:29:27;4.90;;;2.73;;
6280;SDS011;3173;48.204;11.612;2023-06-04T12:32:01;5.83;;;2.67;;
6280;SDS011;3173;48.204;11.612;2023-06-04T12:34:28;3.70;;;2.50;;
6280;SDS011;3173;48.204;11.612;2023-06-04T12:36:55;7.70;;;2.80;;
6280;SDS011;3173;48.204;11.612;2023-06-04T12:39:21;6.50;;;2.60;;
6280;SDS011;3173;48.204;11.612;2023-06-04T12:41:47;4.77;;;2.90;;
6280;SDS011;3173;48.204;11.612;2023-06-04T12:44:14;4.87;;;2.00;;
6280;SDS011;3173;48.204;11.612;2023-06-04T12:46:40;3.60;;;2.50;;
6280;SDS011;3173;48.204;11.612;2023-06-04T12:49:07;6.23;;;2.93;;
6280;SDS011;3173;48.204;11.612;2023-06-04T12:51:33;5.87;;;3.00;;
6280;SDS011;3173;48.204;11.612;2023-06-04T12:53:59;7.87;;;2.40;;
6280;SDS011;3173;48.204;11.612;2023-06-04T12:56:25;6.30;;;2.70;;
6280;SDS011;3173;48.204;11.612;2023-06-04T12:58:51;5.13;;;2.60;;
6280;SDS011;3173;48.204;11.612;2023-06-04T13:01:17;4.03;;;2.57;;
6280;SDS011;3173;48.204;11.612;2023-06-04T13:03:44;4.93;;;2.47;;
6280;SDS011;3173;48.204;11.612;2023-06-04T13:06:10;8.30;;;2.93;;
6280;SDS011;3173;48.204;11.612;2023-06-04T13:08:36;3.23;;;2.27;;
6280;SDS011;3173;48.204;11.612;2023-06-04T13:11:02;3.33;;;2.10;;
6280;SDS011;3173;48.204;11.612;2023-06-04T13:13:29;4.93;;;2.57;;
6280;SDS011;3173;48.204;11.612;2023-06-04T13:15:55;7.70;;;2.77;;
6280;SDS011;3173;48.204;11.612;2023-06-04T13:18:21;4.20;;;2.43;;
6280;SDS011;3173;48.204;11.612;2023-06-04T13:20:48;6.10;;;2.70;;
6280;SDS011;3173;48.204;11.612;2023-06-04T13:23:14;5.17;;;2.60;;
6280;SDS011;3173;48.204;11.612;2023-06-04T13:25:40;5.60;;;2.57;;
6280;SDS011;3173;48.204;11.612;2023-06-04T13:28:07;4.90;;;2.67;;
6280;SDS011;3173;48.204;11.612;2023-06-04T13:30:34;7.20;;;2.50;;
6280;SDS011;3173;48.204;11.612;2023-06-04T13:33:02;5.70;;;2.90;;
6280;SDS011;3173;48.204;11.612;2023-06-04T13:35:28;5.07;;;2.60;;
6280;SDS011;3173;48.204;11.612;2023-06-04T13:37:55;5.77;;;2.60;;
6280;SDS011;3173;48.204;11.612;2023-06-04T13:40:21;6.60;;;3.00;;
6280;SDS011;3173;48.204;11.612;2023-06-04T13:42:47;4.70;;;2.60;;
6280;SDS011;3173;48.204;11.612;2023-06-04T13:45:13;5.77;;;2.60;;
6280;SDS011;3173;48.204;11.612;2023-06-04T13:47:41;3.93;;;2.53;;
6280;SDS011;3173;48.204;11.612;2023-06-04T13:50:08;8.53;;;3.47;;
6280;SDS011;3173;48.204;11.612;2023-06-04T13:52:34;4.67;;;2.70;;
6280;SDS011;3173;48.204;11.612;2023-06-04T13:55:00;6.90;;;3.30;;
6280;SDS011;3173;48.204;11.612;2023-06-04T13:57:27;6.93;;;3.10;;
6280;SDS011;3173;48.204;11.612;2023-06-04T13:59:53;5.33;;;2.83;;
6280;SDS011;3173;48.204;11.612;2023-06-04T14:02:19;6.17;;;2.93;;
6280;SDS011;3173;48.204;11.612;2023-06-04T14:04:46;4.00;;;2.90;;
6280;SDS011;3173;48.204;11.612;2023-06-04T14:07:12;4.77;;;2.83;;
6280;SDS011;3173;48.204;11.612;2023-06-04T14:09:38;3.40;;;2.50;;
6280;SDS011;3173;48.204;11.612;2023-06-04T14:12:05;6.33;;;2.90;;
6280;SDS011;3173;48.204;11.612;2023-06-04T14:14:32;4.30;;;3.00;;
6280;SDS011;3173;48.204;11.612;2023-06-04T14:17:01;8.20;;;2.80;;
6280;SDS011;3173;48.204;11.612;2023-06-04T14:19:28;6.23;;;2.77;;
6280;SDS011;3173;48.204;11.612;2023-06-04T14:21:54;5.87;;;2.20;;
6280;SDS011;3173;48.204;11.612;2023-06-04T14:24:21;5.70;;;2.53;;
6280;SDS011;3173;48.204;11.612;2023-06-04T14:26:47;2.90;;;2.10;;
6280;SDS011;3173;48.204;11.612;2023-06-04T14:29:13;4.90;;;2.77;;
6280;SDS011;3173;48.204;11.612;2023-06-04T14:31:39;3.10;;;2.40;;
6280;SDS011;3173;48.204;11.612;2023-06-04T14:34:05;8.90;;;2.63;;
6280;SDS011;3173;48.204;11.612;2023-06-04T14:36:33;5.80;;;2.93;;
6280;SDS011;3173;48.204;11.612;2023-06-04T14:38:59;5.63;;;3.00;;
6280;SDS011;3173;48.204;11.612;2023-06-04T14:41:25;3.93;;;2.50;;
6280;SDS011;3173;48.204;11.612;2023-06-04T14:43:52;3.40;;;2.20;;
6280;SDS011;3173;48.204;11.612;2023-06-04T14:46:18;4.47;;;2.73;;
6280;SDS011;3173;48.204;11.612;2023-06-04T14:48:44;4.53;;;2.63;;
6280;SDS011;3173;48.204;11.612;2023-06-04T14:51:10;8.67;;;2.40;;
6280;SDS011;3173;48.204;11.612;2023-06-04T14:53:37;6.30;;;2.67;;
6280;SDS011;3173;48.204;11.612;2023-06-04T14:56:06;4.77;;;2.80;;
6280;SDS011;3173;48.204;11.612;2023-06-04T14:58:32;4.17;;;2.67;;
6280;SDS011;3173;48.204;11.612;2023-06-04T15:00:59;4.47;;;2.47;;
6280;SDS011;3173;48.204;11.612;2023-06-04T15:03:28;4.13;;;2.70;;
6280;SDS011;3173;48.204;11.612;2023-06-04T15:05:55;4.47;;;2.83;;
6280;SDS011;3173;48.204;11.612;2023-06-04T15:08:21;4.23;;;2.60;;